Time;durP1;ratioP1;P1;durP2;ratioP2;P2;SDS_P1;SDS_P2;PMS_P1;PMS_P2;Temp;Humidity;BMP_temperature;BMP_pressure;BME280_temperature;BME280_humidity;BME280_pressure;Samples;Min_cycle;Max_cycle;Signal;HPM_P1;HPM_P2
2023/06/26 00:26:01;;;;;;;13.38;9.35;;;21.70;99.90;;;;;;6278557;22;20653;-93
2023/06/26 02:15:00;;;;;;;15.13;11.93;;;20.90;99.90;;;;;;6273514;22;20033;-93
2023/06/26 02:38:49;;;;;;;16.02;11.73;;;20.70;99.90;;;;;;6309002;22;20060;-94
2023/06/26 03:02:22;;;;;;;16.73;13.18;;;20.30;99.90;;;;;;6310006;22;20027;-93
2023/06/26 04:01:15;;;;;;;17.40;12.80;;;20.30;99.90;;;;;;6275301;22;20471;-92
2023/06/26 04:07:16;;;;;;;16.55;12.20;;;20.50;99.90;;;;;;6272038;22;20340;-94
2023/06/26 05:14:46;;;;;;;16.35;12.13;;;21.30;99.90;;;;;;6250942;22;20451;-92
2023/06/26 05:17:15;;;;;;;16.48;11.05;;;21.40;99.90;;;;;;6251527;22;20083;-93
2023/06/26 05:25:34;;;;;;;16.73;10.00;;;21.70;99.90;;;;;;6282042;22;20444;-94
2023/06/26 05:28:52;;;;;;;15.55;9.02;;;22.30;99.90;;;;;;6282048;22;20455;-93
2023/06/26 05:31:18;;;;;;;15.07;9.93;;;21.90;99.90;;;;;;6279121;22;20024;-85
2023/06/26 05:34:04;;;;;;;14.38;8.95;;;21.90;99.90;;;;;;6276464;22;20019;-84
2023/06/26 05:40:36;;;;;;;16.88;9.23;;;21.60;99.90;;;;;;6274251;22;20509;-85
2023/06/26 05:43:02;;;;;;;15.15;9.30;;;21.20;99.90;;;;;;6217057;23;20017;-85
2023/06/26 05:45:28;;;;;;;16.80;8.48;;;21.60;99.90;;;;;;6244746;23;20314;-85
2023/06/26 05:47:53;;;;;;;14.23;8.80;;;21.60;99.90;;;;;;6245503;23;20027;-86
2023/06/26 05:50:44;;;;;;;14.55;8.38;;;21.60;99.90;;;;;;6246479;23;20087;-86
2023/06/26 05:53:17;;;;;;;17.90;9.10;;;21.60;99.90;;;;;;6218009;23;20475;-85
2023/06/26 05:55:45;;;;;;;18.02;7.38;;;21.70;99.90;;;;;;6219635;23;20062;-84
2023/06/26 05:58:31;;;;;;;14.40;7.28;;;21.50;99.90;;;;;;6247480;23;20012;-85
2023/06/26 06:04:37;;;;;;;15.88;7.50;;;21.70;99.90;;;;;;6275756;22;20031;-85
2023/06/26 06:07:32;;;;;;;16.13;6.75;;;21.70;99.90;;;;;;6276871;22;20015;-85
2023/06/26 06:10:07;;;;;;;19.40;7.40;;;21.60;99.90;;;;;;6252313;22;20016;-92
2023/06/26 06:15:06;;;;;;;16.02;7.93;;;21.40;99.90;;;;;;6309466;22;20015;-86
2023/06/26 06:17:41;;;;;;;15.80;7.82;;;21.40;99.90;;;;;;6308080;22;20030;-91
2023/06/26 06:24:36;;;;;;;16.25;7.32;;;22.10;99.90;;;;;;6275664;22;20020;-93
2023/06/26 07:00:31;;;;;;;12.07;4.90;;;21.60;99.90;;;;;;6283862;22;20027;-91
2023/06/26 07:10:15;;;;;;;10.77;3.42;;;21.40;99.90;;;;;;6270743;22;20028;-94
2023/06/26 07:12:40;;;;;;;9.85;3.78;;;22.00;99.90;;;;;;6251111;22;20027;-96
2023/06/26 07:15:12;;;;;;;9.57;3.50;;;22.20;99.90;;;;;;6294870;22;20095;-95
2023/06/26 07:17:47;;;;;;;10.55;3.85;;;22.20;99.90;;;;;;6283942;22;20016;-95
2023/06/26 07:20:22;;;;;;;8.90;3.03;;;22.20;99.90;;;;;;6251821;22;20369;-95
2023/06/26 07:23:03;;;;;;;10.13;3.00;;;22.40;99.90;;;;;;6277356;22;20016;-94
2023/06/26 07:25:41;;;;;;;9.27;2.88;;;22.30;99.90;;;;;;6249917;22;20020;-94
2023/06/26 07:28:11;;;;;;;9.18;2.40;;;22.40;99.90;;;;;;6280032;22;20427;-96
2023/06/26 07:30:39;;;;;;;7.50;2.50;;;22.40;99.90;;;;;;6277266;22;20019;-88
2023/06/26 07:33:14;;;;;;;6.75;2.13;;;22.40;99.90;;;;;;6278116;22;20016;-92
2023/06/26 07:44:05;;;;;;;10.65;2.40;;;22.50;99.90;;;;;;6283499;22;20024;-93
2023/06/26 08:11:21;;;;;;;9.43;2.80;;;22.90;99.90;;;;;;6268975;22;20023;-93
2023/06/26 08:22:54;;;;;;;7.38;2.17;;;23.20;99.90;;;;;;6277498;22;20028;-92
2023/06/26 08:30:57;;;;;;;8.63;2.38;;;23.60;99.90;;;;;;6326220;22;20039;-94
2023/06/26 08:36:44;;;;;;;8.25;2.30;;;24.00;99.90;;;;;;6281419;22;20023;-94
2023/06/26 08:39:41;;;;;;;7.97;2.45;;;24.00;99.60;;;;;;6252414;22;20017;-95
2023/06/26 08:47:43;;;;;;;7.95;2.50;;;23.50;99.90;;;;;;6257549;22;20016;-91
2023/06/26 08:56:54;;;;;;;;;;;;;;;;;;;;;
2023/06/26 08:59:29;;;;;;;7.45;2.25;;;22.70;99.20;;;;;;6164346;23;20017;-92
2023/06/26 09:07:35;;;;;;;8.98;2.25;;;23.50;98.80;;;;;;6330323;22;19914;-94
2023/06/26 09:14:09;;;;;;;;;;;;;;;;;;;;;
2023/06/26 09:17:32;;;;;;;7.35;2.20;;;23.20;98.50;;;;;;6234184;22;20015;-96
2023/06/26 09:19:58;;;;;;;7.70;2.25;;;23.50;98.10;;;;;;6287393;22;20102;-95
2023/06/26 09:22:24;;;;;;;6.60;2.10;;;24.00;98.30;;;;;;6291193;22;20011;-95
2023/06/26 09:25:14;;;;;;;10.13;2.30;;;24.30;97.70;;;;;;6292329;22;20093;-94
2023/06/26 09:27:46;;;;;;;7.93;2.72;;;24.50;96.90;;;;;;6315818;22;20018;-94
2023/06/26 09:33:17;;;;;;;7.43;2.30;;;24.00;97.20;;;;;;6255472;22;20086;-95
2023/06/26 09:36:46;;;;;;;;;;;;;;;;;;;;;
2023/06/26 09:39:31;;;;;;;9.55;2.72;;;23.30;98.10;;;;;;6189352;23;20020;-92
2023/06/26 09:42:38;;;;;;;9.27;2.50;;;23.30;98.60;;;;;;6172417;23;20017;-94
2023/06/26 09:48:31;;;;;;;8.48;2.17;;;23.40;98.20;;;;;;6055212;23;20407;-93
2023/06/26 09:51:00;;;;;;;8.18;2.50;;;23.60;97.10;;;;;;6164752;23;20020;-93
2023/06/26 09:53:29;;;;;;;9.43;2.53;;;24.00;97.30;;;;;;6158287;23;20013;-92
2023/06/26 09:55:58;;;;;;;8.18;2.63;;;24.00;97.00;;;;;;6262006;22;20474;-93
2023/06/26 09:58:24;;;;;;;7.70;2.42;;;23.60;96.90;;;;;;6310795;22;20015;-93
2023/06/26 10:01:17;;;;;;;8.40;2.83;;;23.60;97.10;;;;;;6284343;22;20026;-93
2023/06/26 10:07:22;;;;;;;8.00;2.50;;;23.80;97.30;;;;;;6246820;22;20027;-94
2023/06/26 10:17:46;;;;;;;7.95;2.67;;;23.20;95.80;;;;;;6246260;23;20020;-95
2023/06/26 10:38:10;;;;;;;6.38;2.00;;;24.00;94.30;;;;;;6258644;22;20399;-92
2023/06/26 10:51:29;;;;;;;8.18;2.75;;;23.40;94.40;;;;;;6240518;22;20344;-93
2023/06/26 10:54:45;;;;;;;;;;;;;;;;;;;;;
2023/06/26 11:18:09;;;;;;;;;;;24.90;91.90;;;;;;6193119;23;20020;-90
2023/06/26 11:20:35;;;;;;;9.60;2.40;;;24.50;90.20;;;;;;6191152;23;19923;-90
2023/06/26 11:23:13;;;;;;;7.95;2.50;;;24.70;91.10;;;;;;6216628;23;20023;-90
2023/06/26 11:25:52;;;;;;;8.00;2.13;;;25.10;90.40;;;;;;6256223;22;20015;-90
2023/06/26 11:29:12;;;;;;;8.60;2.50;;;25.10;90.10;;;;;;6281471;22;20019;-90
2023/06/26 11:31:39;;;;;;;9.98;2.55;;;25.20;90.80;;;;;;6281831;22;20140;-89
2023/06/26 11:34:38;;;;;;;7.45;2.50;;;24.80;91.60;;;;;;6281842;22;20065;-91
2023/06/26 11:37:12;;;;;;;8.45;2.38;;;24.40;92.30;;;;;;6280389;22;20343;-90
2023/06/26 11:46:57;;;;;;;7.85;2.50;;;24.30;91.40;;;;;;6307284;22;20069;-91
2023/06/26 11:49:25;;;;;;;7.30;2.55;;;24.30;91.60;;;;;;6308809;22;20019;-90
2023/06/26 11:51:51;;;;;;;7.93;2.47;;;23.90;91.20;;;;;;6280778;22;20046;-88
2023/06/26 11:54:27;;;;;;;9.77;2.42;;;23.80;91.40;;;;;;6282468;22;20320;-90
2023/06/26 11:57:08;;;;;;;8.25;2.38;;;23.50;91.60;;;;;;6286699;22;20011;-86
2023/06/26 11:59:43;;;;;;;6.50;2.20;;;23.70;92.00;;;;;;6311465;22;20443;-90
2023/06/26 12:02:27;;;;;;;6.90;2.10;;;24.20;91.30;;;;;;6312003;22;20036;-88
2023/06/26 12:05:08;;;;;;;9.07;2.28;;;24.40;90.90;;;;;;6311079;22;20007;-88
2023/06/26 12:07:38;;;;;;;8.55;2.50;;;24.50;90.90;;;;;;6312895;22;20053;-89
2023/06/26 12:12:47;;;;;;;6.45;1.90;;;24.40;90.30;;;;;;6305601;22;20024;-90
2023/06/26 12:15:33;;;;;;;6.35;2.03;;;24.60;88.90;;;;;;6281690;22;20011;-89
2023/06/26 12:17:59;;;;;;;7.13;2.00;;;24.80;87.10;;;;;;6289627;22;20022;-90
2023/06/26 12:20:43;;;;;;;7.75;2.15;;;25.00;89.10;;;;;;6292131;22;20043;-89
2023/06/26 12:23:13;;;;;;;7.72;2.42;;;24.50;91.10;;;;;;6281419;22;20019;-88
2023/06/26 12:25:46;;;;;;;8.13;2.30;;;24.20;91.90;;;;;;6281445;22;20015;-89
2023/06/26 12:39:41;;;;;;;8.38;2.25;;;24.70;90.70;;;;;;6307308;22;20431;-89
2023/06/26 12:42:15;;;;;;;8.38;2.00;;;24.70;90.80;;;;;;6280962;22;20035;-93
2023/06/26 12:44:40;;;;;;;7.60;1.98;;;24.60;91.10;;;;;;6283448;22;20312;-92
2023/06/26 12:47:14;;;;;;;8.13;2.17;;;24.70;90.70;;;;;;6282141;22;20015;-92
2023/06/26 12:49:42;;;;;;;8.10;2.08;;;24.80;90.70;;;;;;6309898;22;20020;-91
2023/06/26 12:52:20;;;;;;;6.78;1.85;;;24.50;90.30;;;;;;6281842;22;20065;-94
2023/06/26 12:54:50;;;;;;;8.88;1.85;;;24.40;90.30;;;;;;6308841;22;20015;-92
2023/06/26 12:57:16;;;;;;;7.40;1.90;;;24.00;90.40;;;;;;6290658;22;20015;-92
2023/06/26 12:59:54;;;;;;;7.32;1.88;;;24.00;90.30;;;;;;6320543;22;20015;-91
2023/06/26 13:02:35;;;;;;;7.30;2.05;;;24.30;88.50;;;;;;6308600;22;20127;-92
2023/06/26 13:05:13;;;;;;;5.95;1.60;;;24.50;86.20;;;;;;6282542;22;20019;-92
2023/06/26 13:07:42;;;;;;;6.15;1.80;;;24.60;85.60;;;;;;6279842;22;20016;-89
2023/06/26 13:21:29;;;;;;;6.38;1.85;;;24.60;83.60;;;;;;6279936;22;20478;-79
2023/06/26 13:23:56;;;;;;;7.07;1.83;;;24.80;85.00;;;;;;6278525;22;20069;-80
2023/06/26 13:26:22;;;;;;;9.73;2.05;;;24.70;87.20;;;;;;6308439;22;20022;-88
2023/06/26 13:28:49;;;;;;;4.90;1.70;;;24.80;89.10;;;;;;6307680;22;20090;-87
2023/06/26 13:31:18;;;;;;;9.27;2.15;;;24.30;89.60;;;;;;6308291;22;20019;-91
2023/06/26 13:33:45;;;;;;;6.68;1.80;;;24.10;90.10;;;;;;6318592;22;20019;-90
2023/06/26 13:36:11;;;;;;;8.57;1.92;;;24.00;90.50;;;;;;6286513;22;20016;-88
2023/06/26 13:38:46;;;;;;;7.30;2.08;;;24.00;90.70;;;;;;6281534;22;20028;-90
2023/06/26 13:41:12;;;;;;;8.32;2.00;;;23.80;90.90;;;;;;6281267;22;20447;-90
2023/06/26 13:43:43;;;;;;;7.80;2.00;;;23.80;91.00;;;;;;6280313;22;20094;-91
2023/06/26 13:46:11;;;;;;;6.72;1.90;;;23.90;90.60;;;;;;6280658;22;20012;-92
2023/06/26 13:48:46;;;;;;;7.05;1.70;;;23.50;89.90;;;;;;6280829;22;20548;-88
2023/06/26 13:51:12;;;;;;;8.02;1.77;;;23.80;89.80;;;;;;6281673;22;20020;-93
2023/06/26 13:53:54;;;;;;;5.05;1.80;;;23.90;90.30;;;;;;6281518;22;20007;-90
2023/06/26 13:56:22;;;;;;;5.70;1.75;;;24.00;90.20;;;;;;6309133;22;20019;-91
2023/06/26 13:58:48;;;;;;;5.80;1.73;;;23.60;89.80;;;;;;6279691;22;20517;-90
2023/06/26 14:01:14;;;;;;;6.50;1.70;;;23.40;90.10;;;;;;6313638;22;20062;-91
2023/06/26 14:03:40;;;;;;;7.45;1.80;;;23.40;90.50;;;;;;6281884;22;20018;-90
2023/06/26 14:06:24;;;;;;;6.65;1.75;;;23.60;87.80;;;;;;6280652;22;20012;-90
2023/06/26 14:08:53;;;;;;;6.72;1.90;;;23.50;88.30;;;;;;6258118;22;20474;-91
2023/06/26 14:11:18;;;;;;;7.15;1.80;;;23.70;89.30;;;;;;6301918;22;20229;-90
2023/06/26 14:13:45;;;;;;;7.55;1.98;;;23.80;88.80;;;;;;6289143;22;20019;-91
2023/06/26 14:16:11;;;;;;;5.95;1.60;;;23.60;88.10;;;;;;6251073;22;20039;-89
2023/06/26 14:18:43;;;;;;;7.45;2.10;;;23.70;89.00;;;;;;6250339;22;20016;-89
2023/06/26 14:22:01;;;;;;;7.47;2.05;;;23.90;89.10;;;;;;6249433;22;20317;-90
2023/06/26 14:24:32;;;;;;;6.40;1.63;;;23.80;90.00;;;;;;6280953;22;20073;-89
2023/06/26 14:26:58;;;;;;;6.43;1.70;;;24.00;89.80;;;;;;6259681;22;20041;-89
2023/06/26 14:30:33;;;;;;;7.70;1.85;;;24.20;90.10;;;;;;6276985;22;20099;-90
2023/06/26 14:33:00;;;;;;;7.03;1.90;;;24.10;88.50;;;;;;6245897;22;20031;-90
2023/06/26 14:35:50;;;;;;;7.18;1.70;;;24.00;89.60;;;;;;6276744;22;20095;-90
2023/06/26 14:38:16;;;;;;;5.78;1.70;;;24.00;90.00;;;;;;6278408;22;20091;-90
2023/06/26 14:40:48;;;;;;;7.75;1.70;;;24.20;89.90;;;;;;6250822;22;20019;-89
2023/06/26 14:43:41;;;;;;;7.18;1.83;;;23.90;89.20;;;;;;6251437;22;20069;-92
2023/06/26 14:46:07;;;;;;;7.63;1.88;;;23.80;89.60;;;;;;6281666;22;20023;-92
2023/06/26 14:48:32;;;;;;;9.02;2.00;;;24.00;89.80;;;;;;6309889;22;20018;-90
2023/06/26 14:51:14;;;;;;;8.25;2.00;;;23.80;88.60;;;;;;6299127;22;20035;-90
2023/06/26 15:00:14;;;;;;;7.00;1.83;;;24.40;90.10;;;;;;6241105;23;20070;-92
2023/06/26 15:02:45;;;;;;;6.00;1.65;;;24.20;88.60;;;;;;6224280;22;20511;-93
2023/06/26 15:05:17;;;;;;;6.30;1.98;;;24.50;87.70;;;;;;6278632;22;20020;-93
2023/06/26 15:07:49;;;;;;;7.82;1.90;;;24.80;88.80;;;;;;6247784;22;20015;-91
2023/06/26 15:10:15;;;;;;;9.45;2.15;;;24.60;89.30;;;;;;6248698;22;20019;-87
2023/06/26 15:12:42;;;;;;;8.13;2.00;;;24.90;89.30;;;;;;6249454;22;20065;-89
2023/06/26 15:15:11;;;;;;;6.15;1.80;;;24.90;87.80;;;;;;6248338;22;20024;-89
2023/06/26 15:17:37;;;;;;;7.93;2.72;;;24.40;86.20;;;;;;6251224;22;20077;-87
2023/06/26 15:23:48;;;;;;;12.32;2.67;;;24.40;86.30;;;;;;6256672;22;20035;-90
2023/06/26 15:30:27;;;;;;;;;;;;;;;;;;;;;
2023/06/26 15:33:43;;;;;;;7.28;1.88;;;23.40;89.70;;;;;;6259919;22;20331;-92
2023/06/26 15:36:15;;;;;;;6.53;1.83;;;23.10;90.00;;;;;;6240789;22;20057;-93
2023/06/26 16:30:56;;;;;;;7.57;2.38;;;21.90;91.00;;;;;;6283576;22;20106;-94
2023/06/26 16:34:08;;;;;;;6.93;1.85;;;21.70;91.20;;;;;;6281087;22;20103;-93
2023/06/26 16:49:04;;;;;;;6.68;2.00;;;22.40;89.70;;;;;;6250095;23;20559;-94
2023/06/26 17:05:15;;;;;;;7.25;1.90;;;23.30;89.20;;;;;;6275972;22;20023;-92
2023/06/26 17:16:22;;;;;;;8.80;2.00;;;23.10;88.60;;;;;;6249090;23;20031;-94
2023/06/26 17:18:54;;;;;;;9.05;2.05;;;23.00;87.80;;;;;;6255496;23;20016;-94
2023/06/26 17:24:15;;;;;;;8.00;1.88;;;23.30;87.90;;;;;;6260722;23;20026;-94
2023/06/26 17:27:40;;;;;;;7.40;2.35;;;23.10;87.80;;;;;;6248415;22;20016;-94
2023/06/26 17:30:22;;;;;;;7.18;1.90;;;23.20;86.10;;;;;;6180072;23;20156;-93
2023/06/26 17:32:48;;;;;;;10.77;2.20;;;23.50;84.00;;;;;;6260232;22;20030;-91
2023/06/26 17:35:39;;;;;;;6.93;1.70;;;23.40;84.80;;;;;;6299779;22;20047;-94
2023/06/26 17:42:21;;;;;;;6.25;1.80;;;23.80;81.60;;;;;;6273736;22;20027;-91
2023/06/26 17:45:56;;;;;;;7.15;1.92;;;24.00;80.80;;;;;;6184912;23;20024;-93
2023/06/26 17:57:44;;;;;;;7.15;1.90;;;23.70;80.40;;;;;;6134120;22;20072;-91
2023/06/26 18:00:15;;;;;;;7.90;1.90;;;23.90;80.40;;;;;;6287335;22;20102;-92
2023/06/26 18:05:35;;;;;;;6.68;1.77;;;24.10;80.90;;;;;;6288237;22;20445;-94
2023/06/26 18:49:04;;;;;;;7.22;1.80;;;22.90;83.00;;;;;;6277158;22;20135;-95
2023/06/26 18:51:45;;;;;;;7.22;1.80;;;22.50;83.20;;;;;;6262428;22;20019;-96
2023/06/26 18:54:16;;;;;;;6.35;1.73;;;22.60;83.80;;;;;;6257306;22;20015;-95
2023/06/26 19:08:30;;;;;;;6.15;1.70;;;20.80;85.50;;;;;;6270915;22;20440;-95
2023/06/26 19:51:19;;;;;;;8.25;2.00;;;17.90;91.30;;;;;;6285379;22;20034;-93
2023/06/26 19:58:22;;;;;;;7.20;2.00;;;18.00;91.30;;;;;;6283145;22;20090;-94
2023/06/26 20:05:15;;;;;;;9.48;2.53;;;17.80;91.40;;;;;;6278944;22;20121;-93
2023/06/26 20:07:59;;;;;;;5.57;1.63;;;17.80;91.80;;;;;;6253474;22;20339;-94
2023/06/26 20:10:25;;;;;;;8.43;2.03;;;17.40;91.70;;;;;;6279263;22;20023;-95
2023/06/26 20:13:05;;;;;;;7.57;1.80;;;18.20;91.40;;;;;;6252668;22;20011;-91
2023/06/26 20:15:40;;;;;;;8.50;1.90;;;17.60;92.30;;;;;;6280122;22;20026;-93
2023/06/26 20:18:07;;;;;;;7.10;1.85;;;17.50;91.90;;;;;;6279864;22;20016;-92
2023/06/26 20:20:32;;;;;;;10.05;2.03;;;17.40;91.60;;;;;;6259943;22;20030;-94
2023/06/26 20:26:17;;;;;;;9.73;2.00;;;17.30;92.60;;;;;;6192594;22;20034;-94
2023/06/26 20:28:49;;;;;;;6.75;1.90;;;17.30;92.50;;;;;;6255994;22;20049;-94
2023/06/26 20:31:40;;;;;;;8.27;1.90;;;17.40;92.90;;;;;;6285493;22;20015;-93
2023/06/26 20:34:44;;;;;;;7.97;1.80;;;17.20;92.00;;;;;;6262019;22;20058;-94
2023/06/26 20:37:19;;;;;;;10.40;2.20;;;17.10;93.00;;;;;;6252365;22;20023;-93
2023/06/26 20:47:19;;;;;;;7.43;1.88;;;16.80;93.80;;;;;;6251034;22;20049;-93
2023/06/26 20:50:20;;;;;;;7.88;1.90;;;16.80;93.60;;;;;;6252362;22;20122;-94
2023/06/26 20:59:02;;;;;;;8.77;1.95;;;16.70;93.20;;;;;;6268862;22;19919;-94
2023/06/26 21:01:29;;;;;;;10.50;2.10;;;16.60;94.60;;;;;;6250182;22;20320;-95
2023/06/26 21:04:00;;;;;;;9.32;2.10;;;16.60;93.60;;;;;;6251113;22;20018;-93
2023/06/26 21:06:46;;;;;;;6.95;2.30;;;16.40;93.90;;;;;;6277790;22;20339;-93
2023/06/26 21:09:39;;;;;;;10.07;2.30;;;16.40;94.20;;;;;;6250800;22;20102;-90
2023/06/26 21:30:15;;;;;;;9.05;2.20;;;16.10;95.70;;;;;;6277024;22;20031;-90
2023/06/26 21:33:19;;;;;;;7.72;2.17;;;16.10;95.80;;;;;;6249882;22;20098;-89
2023/06/26 21:36:00;;;;;;;9.52;2.17;;;16.10;96.20;;;;;;6248531;22;20020;-92
2023/06/26 21:38:47;;;;;;;8.55;2.72;;;16.00;95.80;;;;;;6251184;22;20016;-91
2023/06/26 21:41:38;;;;;;;11.50;2.60;;;16.00;96.50;;;;;;6279723;22;20016;-90
2023/06/26 21:44:04;;;;;;;10.50;2.90;;;16.00;96.60;;;;;;6253820;22;20071;-90
2023/06/26 21:46:36;;;;;;;10.77;2.63;;;15.90;96.20;;;;;;6256154;22;20026;-90
2023/06/26 21:49:30;;;;;;;8.85;2.65;;;15.90;97.20;;;;;;6266325;22;20030;-89
2023/06/26 21:51:56;;;;;;;7.85;2.40;;;16.00;97.90;;;;;;6251510;22;20020;-91
2023/06/26 21:54:40;;;;;;;7.90;2.20;;;15.80;96.60;;;;;;6253311;22;20039;-91
2023/06/26 21:57:19;;;;;;;7.72;2.40;;;15.90;97.60;;;;;;6276534;22;20347;-90
2023/06/26 21:59:45;;;;;;;8.55;2.33;;;15.80;97.50;;;;;;6252689;22;20390;-90
2023/06/26 22:02:11;;;;;;;7.95;2.05;;;15.80;97.10;;;;;;6261955;22;20043;-91
2023/06/26 22:04:43;;;;;;;8.88;1.90;;;15.80;97.40;;;;;;6252447;22;20023;-91
2023/06/26 22:07:09;;;;;;;9.25;2.10;;;16.40;98.30;;;;;;6251101;22;20394;-91
2023/06/26 22:12:19;;;;;;;8.18;2.30;;;15.70;98.90;;;;;;6276065;22;20024;-91
2023/06/26 22:14:51;;;;;;;9.93;1.90;;;15.60;98.10;;;;;;6279231;22;20012;-91
2023/06/26 22:18:01;;;;;;;7.78;2.15;;;15.60;98.70;;;;;;6277473;22;20035;-91
2023/06/26 22:23:02;;;;;;;8.20;2.15;;;15.50;98.30;;;;;;6276342;22;20028;-91
2023/06/26 22:32:08;;;;;;;8.60;2.20;;;15.30;99.90;;;;;;6239813;23;20016;-92
2023/06/26 22:34:37;;;;;;;7.53;2.40;;;15.40;99.90;;;;;;6220746;23;20043;-91
2023/06/26 22:37:05;;;;;;;8.60;2.28;;;16.20;99.70;;;;;;6247436;23;20012;-92
2023/06/26 22:39:38;;;;;;;9.88;2.70;;;15.30;99.90;;;;;;6219926;23;20012;-91
2023/06/26 22:42:19;;;;;;;8.32;2.40;;;16.20;99.90;;;;;;6220097;23;20026;-91
2023/06/26 22:45:10;;;;;;;8.10;2.50;;;15.30;99.90;;;;;;6219744;23;20101;-91
2023/06/26 22:47:41;;;;;;;8.32;2.80;;;15.30;99.90;;;;;;6256084;23;20012;-92
2023/06/26 22:50:47;;;;;;;7.90;2.85;;;15.20;99.90;;;;;;6220218;23;20020;-91
2023/06/26 22:53:46;;;;;;;7.85;2.75;;;15.20;99.90;;;;;;6219928;23;20020;-92
2023/06/26 22:56:44;;;;;;;13.15;3.30;;;15.20;99.90;;;;;;6220737;23;20416;-92
2023/06/26 22:59:19;;;;;;;8.75;3.08;;;15.30;99.90;;;;;;6243412;23;20020;-91
2023/06/26 23:01:48;;;;;;;10.57;3.47;;;15.10;99.90;;;;;;6220442;23;20012;-91
2023/06/26 23:04:39;;;;;;;8.05;2.80;;;15.20;99.90;;;;;;6263491;23;20441;-92
2023/06/26 23:09:42;;;;;;;9.85;2.80;;;15.20;99.90;;;;;;6277694;22;20028;-92
2023/06/26 23:12:17;;;;;;;9.63;2.83;;;15.10;99.90;;;;;;6298177;22;20023;-92
2023/06/26 23:14:45;;;;;;;9.50;3.03;;;15.10;99.90;;;;;;6311064;22;20015;-92
2023/06/26 23:17:31;;;;;;;9.88;3.05;;;15.10;99.90;;;;;;6311912;22;20053;-91
2023/06/26 23:20:18;;;;;;;9.90;3.13;;;15.00;99.90;;;;;;6339002;22;20072;-92
2023/06/26 23:22:47;;;;;;;10.10;3.45;;;15.10;99.90;;;;;;6312577;22;20026;-92
2023/06/26 23:25:34;;;;;;;9.80;3.33;;;15.10;99.90;;;;;;6311954;22;20007;-91
2023/06/26 23:28:14;;;;;;;9.95;3.53;;;15.10;99.90;;;;;;6313236;22;20316;-92
2023/06/26 23:30:47;;;;;;;12.25;3.28;;;15.00;99.90;;;;;;6302965;22;20024;-92
2023/06/26 23:33:17;;;;;;;10.27;3.38;;;14.90;99.90;;;;;;6278401;22;20082;-92
2023/06/26 23:35:48;;;;;;;11.60;3.45;;;14.90;99.90;;;;;;6252492;22;20016;-91
2023/06/26 23:39:05;;;;;;;10.18;3.05;;;14.90;99.90;;;;;;6256084;22;20388;-91
2023/06/26 23:41:32;;;;;;;10.40;3.15;;;14.40;99.90;;;;;;6268575;22;20028;-91
2023/06/26 23:44:03;;;;;;;11.35;3.15;;;14.70;99.90;;;;;;6255181;22;20031;-92
2023/06/26 23:46:34;;;;;;;10.32;3.00;;;14.50;99.90;;;;;;6278415;22;20044;-91
2023/06/26 23:49:00;;;;;;;10.52;2.92;;;14.60;99.90;;;;;;6279433;22;20147;-91
2023/06/26 23:51:29;;;;;;;11.55;3.35;;;15.20;99.90;;;;;;6259130;22;20015;-91
2023/06/26 23:54:41;;;;;;;10.05;3.33;;;13.90;99.90;;;;;;6250204;22;20046;-91
2023/06/26 23:57:07;;;;;;;10.63;3.30;;;14.10;99.90;;;;;;6249669;22;20026;-91
2023/06/26 23:59:36;;;;;;;9.45;3.25;;;14.60;99.90;;;;;;6250435;22;20395;-91
